createdAt,value
2017-01-22T00:00:16.955Z,-2.28
2017-01-22T00:01:23.261Z,-2.29
2017-01-22T00:02:28.425Z,-2.32
2017-01-22T00:03:34.578Z,-2.38
2017-01-22T00:04:39.789Z,-2.36
2017-01-22T00:05:45.961Z,-2.4
2017-01-22T00:06:51.155Z,-2.45
2017-01-22T00:07:56.354Z,-2.45
2017-01-22T00:09:02.515Z,-2.56
2017-01-22T00:10:07.741Z,-2.56
2017-01-22T00:11:12.910Z,-2.58
2017-01-22T00:12:19.062Z,-2.61
2017-01-22T00:13:23.297Z,-2.68
2017-01-22T00:14:29.472Z,-2.64
2017-01-22T00:15:35.697Z,-2.69
2017-01-22T00:16:41.847Z,-2.75
2017-01-22T00:17:46.142Z,-2.75
2017-01-22T00:18:49.381Z,-2.85
2017-01-22T00:19:53.585Z,-2.76
2017-01-22T00:20:58.784Z,-2.79
2017-01-22T00:22:04.949Z,-2.82
2017-01-22T00:23:10.148Z,-2.74
2017-01-22T00:24:16.311Z,-2.79
2017-01-22T00:25:20.505Z,-2.86
2017-01-22T00:26:23.765Z,-2.85
2017-01-22T00:27:29.940Z,-2.85
2017-01-22T00:28:35.151Z,-2.9
2017-01-22T00:29:39.381Z,-2.92
2017-01-22T00:30:44.550Z,-2.86
2017-01-22T00:31:50.712Z,-2.9
2017-01-22T00:32:55.906Z,-2.96
2017-01-22T00:34:00.136Z,-2.94
2017-01-22T00:35:05.443Z,-2.86
2017-01-22T00:36:09.607Z,-2.87
2017-01-22T00:37:15.777Z,-2.97
2017-01-22T00:38:21.943Z,-2.85
2017-01-22T00:39:28.106Z,-2.86
2017-01-22T00:40:34.277Z,-2.9
2017-01-22T00:41:38.520Z,-2.9
2017-01-22T00:42:43.682Z,-2.89
2017-01-22T00:43:48.880Z,-2.86
2017-01-22T00:44:54.077Z,-2.93
2017-01-22T00:45:58.381Z,-2.92
2017-01-22T00:47:03.578Z,-2.93
2017-01-22T00:48:08.765Z,-2.92
2017-01-22T00:49:13.958Z,-2.9
2017-01-22T00:50:18.163Z,-2.99
2017-01-22T00:51:23.359Z,-2.97
2017-01-22T00:52:28.622Z,-2.96
2017-01-22T00:53:32.835Z,-2.94
2017-01-22T00:54:39.046Z,-2.96
2017-01-22T00:55:44.201Z,-2.93
2017-01-22T00:56:49.390Z,-2.92
2017-01-22T00:57:54.582Z,-2.93
2017-01-22T00:58:59.774Z,-2.93
2017-01-22T01:00:05.939Z,-3.04
2017-01-22T01:01:12.098Z,-3.07
2017-01-22T01:02:15.360Z,-3.04
2017-01-22T01:03:20.552Z,-3.04
2017-01-22T01:04:26.683Z,-3.08
2017-01-22T01:05:31.878Z,-3.1
2017-01-22T01:06:38.054Z,-3.13
2017-01-22T01:07:42.286Z,-3.05
2017-01-22T01:08:48.445Z,-3.13
2017-01-22T01:09:51.675Z,-3.13
2017-01-22T01:10:57.828Z,-3.1
2017-01-22T01:12:03.078Z,-3.15
2017-01-22T01:13:07.381Z,-3.14
2017-01-22T01:14:10.651Z,-3.13
2017-01-22T01:15:13.910Z,-3.2
2017-01-22T01:16:19.106Z,-3.13
2017-01-22T01:17:25.279Z,-3.1
2017-01-22T01:18:31.434Z,-3.14
2017-01-22T01:19:36.629Z,-3.18
2017-01-22T01:20:41.829Z,-3.14
2017-01-22T01:21:47.997Z,-3.11
2017-01-22T01:22:54.195Z,-3.02
2017-01-22T01:24:00.320Z,-3.02
2017-01-22T01:25:05.515Z,-3.05
2017-01-22T01:26:10.812Z,-3.02
2017-01-22T01:27:16.959Z,-3.08
2017-01-22T01:28:22.119Z,-3.1
2017-01-22T01:29:27.310Z,-3.1
2017-01-22T01:30:33.479Z,-3.04
2017-01-22T01:31:38.665Z,-3.17
2017-01-22T01:33:48.084Z,-3.14
2017-01-22T01:34:51.295Z,-3.07
2017-01-22T01:35:55.494Z,-3.08
2017-01-22T01:37:00.684Z,-3.13
2017-01-22T01:38:06.840Z,-3.11
2017-01-22T01:39:12.066Z,-3.15
2017-01-22T01:40:18.188Z,-3.17
2017-01-22T01:41:24.350Z,-3.11
2017-01-22T01:42:30.512Z,-3.22
2017-01-22T01:43:34.785Z,-3.32
2017-01-22T01:44:39.941Z,-3.35
2017-01-22T01:45:45.107Z,-3.36
2017-01-22T01:46:49.304Z,-3.38
2017-01-22T01:47:54.515Z,-3.44
2017-01-22T01:48:58.745Z,-3.29
2017-01-22T01:50:04.920Z,-3.28
2017-01-22T01:51:10.098Z,-3.28
2017-01-22T01:52:14.375Z,-3.36
2017-01-22T01:53:18.567Z,-3.39
2017-01-22T01:54:24.831Z,-3.32
2017-01-22T01:55:30.131Z,-3.32
2017-01-22T01:56:36.299Z,-3.32
2017-01-22T01:57:42.454Z,-3.29
2017-01-22T01:58:48.625Z,-3.41
2017-01-22T01:59:53.802Z,-3.36
2017-01-22T02:00:58.028Z,-3.41
2017-01-22T02:02:04.197Z,-3.39
2017-01-22T02:03:09.397Z,-3.44
2017-01-22T02:04:14.574Z,-3.44
2017-01-22T02:05:18.850Z,-3.5
2017-01-22T02:06:23.999Z,-3.47
2017-01-22T02:07:29.202Z,-3.54
2017-01-22T02:08:34.389Z,-3.6
2017-01-22T02:09:38.620Z,-3.61
2017-01-22T02:10:42.862Z,-3.6
2017-01-22T02:11:48.015Z,-3.65
2017-01-22T02:12:53.219Z,-3.67
2017-01-22T02:13:58.511Z,-3.67
2017-01-22T02:15:02.724Z,-3.75
2017-01-22T02:16:07.928Z,-3.75
2017-01-22T02:17:13.093Z,-3.72
2017-01-22T02:18:19.260Z,-3.72
2017-01-22T02:19:23.484Z,-3.72
2017-01-22T02:20:27.679Z,-3.68
2017-01-22T02:21:32.925Z,-3.83
2017-01-22T02:22:38.056Z,-3.89
2017-01-22T02:23:44.251Z,-3.87
2017-01-22T02:24:50.391Z,-3.81
2017-01-22T02:25:56.562Z,-3.86
2017-01-22T02:27:02.770Z,-3.93
2017-01-22T02:28:08.929Z,-3.91
2017-01-22T02:29:13.128Z,-3.99
2017-01-22T02:30:19.298Z,-3.94
2017-01-22T02:31:25.451Z,-3.9
2017-01-22T02:32:31.625Z,-3.91
2017-01-22T02:33:36.851Z,-3.96
2017-01-22T02:34:41.982Z,-3.96
2017-01-22T02:35:48.142Z,-3.94
2017-01-22T02:36:53.350Z,-3.93
2017-01-22T02:37:59.550Z,-3.93
2017-01-22T02:39:05.679Z,-3.91
2017-01-22T02:40:11.860Z,-3.99
2017-01-22T02:41:17.048Z,-4.01
2017-01-22T02:42:22.258Z,-3.99
2017-01-22T02:43:28.457Z,-3.94
2017-01-22T02:44:34.614Z,-3.98
2017-01-22T02:45:38.838Z,-4.02
2017-01-22T02:46:45.073Z,-4.01
2017-01-22T02:47:51.216Z,-3.98
2017-01-22T02:48:56.414Z,-3.98
2017-01-22T02:50:01.601Z,-3.94
2017-01-22T02:51:06.798Z,-3.98
2017-01-22T02:52:11.990Z,-3.98
2017-01-22T02:53:17.153Z,-3.91
2017-01-22T02:54:22.344Z,-3.98
2017-01-22T02:55:26.581Z,-3.98
2017-01-22T02:56:31.753Z,-3.98
2017-01-22T02:57:36.945Z,-3.96
2017-01-22T02:58:43.119Z,-3.94
2017-01-22T02:59:49.284Z,-4.05
2017-01-22T03:00:55.450Z,-4.04
2017-01-22T03:02:01.610Z,-4.09
2017-01-22T03:03:07.777Z,-4.09
2017-01-22T03:04:12.962Z,-4.12
2017-01-22T03:05:18.151Z,-4.15
2017-01-22T03:06:23.332Z,-4.12
2017-01-22T03:07:27.555Z,-4.14
2017-01-22T03:08:32.788Z,-4.26
2017-01-22T03:09:37.977Z,-4.11
2017-01-22T03:10:43.200Z,-4.22
2017-01-22T03:11:48.387Z,-4.14
2017-01-22T03:12:52.667Z,-4.25
2017-01-22T03:13:58.834Z,-4.28
2017-01-22T03:15:03.026Z,-4.23
2017-01-22T03:16:08.200Z,-4.25
2017-01-22T03:17:14.361Z,-4.28
2017-01-22T03:18:20.531Z,-4.25
2017-01-22T03:19:25.720Z,-4.28
2017-01-22T03:20:30.912Z,-4.25
2017-01-22T03:21:36.121Z,-4.37
2017-01-22T03:22:40.367Z,-4.29
2017-01-22T03:23:46.488Z,-4.28
2017-01-22T03:24:52.649Z,-4.26
2017-01-22T03:25:56.872Z,-4.46
2017-01-22T03:27:02.066Z,-4.44
2017-01-22T03:28:08.255Z,-4.41
2017-01-22T03:29:13.520Z,-4.47
2017-01-22T03:30:18.711Z,-4.41
2017-01-22T03:31:24.893Z,-4.37
2017-01-22T03:32:29.145Z,-4.55
2017-01-22T03:33:34.340Z,-4.41
2017-01-22T03:34:39.542Z,-4.44
2017-01-22T03:35:44.753Z,-4.51
2017-01-22T03:36:49.125Z,-4.48
2017-01-22T03:37:55.283Z,-4.48
2017-01-22T03:38:59.503Z,-4.44
2017-01-22T03:40:05.668Z,-4.54
2017-01-22T03:41:11.880Z,-4.55
2017-01-22T03:42:16.994Z,-4.57
2017-01-22T03:43:23.233Z,-4.41
2017-01-22T03:44:28.337Z,-4.55
2017-01-22T03:45:31.689Z,-4.55
2017-01-22T03:46:36.855Z,-4.51
2017-01-22T03:47:42.048Z,-4.51
2017-01-22T03:48:47.239Z,-4.54
2017-01-22T03:49:53.471Z,-4.58
2017-01-22T03:50:58.706Z,-4.59
2017-01-22T03:52:03.954Z,-4.59
2017-01-22T03:53:08.181Z,-4.61
2017-01-22T03:54:13.365Z,-4.68
2017-01-22T03:55:19.570Z,-4.65
2017-01-22T03:56:24.766Z,-4.61
2017-01-22T03:57:29.923Z,-4.61
2017-01-22T03:58:34.154Z,-4.75
2017-01-22T03:59:39.360Z,-4.69
2017-01-22T04:00:43.555Z,-4.69
2017-01-22T04:01:49.768Z,-4.79
2017-01-22T04:02:55.917Z,-4.76
2017-01-22T04:04:01.151Z,-4.76
2017-01-22T04:05:07.342Z,-4.8
2017-01-22T04:06:13.465Z,-4.66
2017-01-22T04:07:18.686Z,-4.76
2017-01-22T04:08:23.847Z,-4.77
2017-01-22T04:09:30.007Z,-4.77
2017-01-22T04:10:36.166Z,-4.79
2017-01-22T04:11:41.415Z,-4.79
2017-01-22T04:12:47.576Z,-4.77
2017-01-22T04:13:52.909Z,-4.8
2017-01-22T04:14:58.109Z,-4.77
2017-01-22T04:16:03.370Z,-4.77
2017-01-22T04:17:09.523Z,-4.79
2017-01-22T04:18:14.718Z,-4.8
2017-01-22T04:19:20.876Z,-4.77
2017-01-22T04:20:26.145Z,-4.75
2017-01-22T04:21:32.279Z,-4.66
2017-01-22T04:22:38.488Z,-4.57
2017-01-22T04:23:43.636Z,-4.73
2017-01-22T04:24:48.832Z,-4.64
2017-01-22T04:25:54.997Z,-4.69
2017-01-22T04:27:01.205Z,-4.73
2017-01-22T04:28:06.398Z,-4.83
2017-01-22T04:29:12.558Z,-4.77
2017-01-22T04:30:17.759Z,-4.79
2017-01-22T04:31:23.929Z,-4.77
2017-01-22T04:32:29.101Z,-4.71
2017-01-22T04:33:35.271Z,-4.82
2017-01-22T04:34:40.461Z,-4.91
2017-01-22T04:35:44.674Z,-4.75
2017-01-22T04:36:50.846Z,-4.83
2017-01-22T04:37:57.007Z,-4.82
2017-01-22T04:39:03.167Z,-4.8
2017-01-22T04:40:09.325Z,-4.91
2017-01-22T04:41:13.611Z,-4.8
2017-01-22T04:42:17.789Z,-4.94
2017-01-22T04:43:23.941Z,-4.83
2017-01-22T04:44:28.149Z,-4.98
2017-01-22T04:45:34.358Z,-4.94
2017-01-22T04:46:40.516Z,-4.98
2017-01-22T04:47:46.682Z,-5.08
2017-01-22T04:48:52.936Z,-5.04
2017-01-22T04:49:59.096Z,-4.98
2017-01-22T04:51:04.253Z,-5.04
2017-01-22T04:52:08.480Z,-5.01
2017-01-22T04:53:13.682Z,-5.14
2017-01-22T04:54:17.927Z,-5.14
2017-01-22T04:55:24.099Z,-5.03
2017-01-22T04:56:29.283Z,-5.11
2017-01-22T04:57:33.483Z,-5.08
2017-01-22T04:58:39.648Z,-5.04
2017-01-22T04:59:45.819Z,-4.98
2017-01-22T05:00:51.981Z,-5.12
2017-01-22T05:01:56.207Z,-5
2017-01-22T05:02:59.437Z,-5.08
2017-01-22T05:04:05.600Z,-5.07
2017-01-22T05:05:10.789Z,-5.14
2017-01-22T05:06:15.022Z,-4.95
2017-01-22T05:07:19.289Z,-4.98
2017-01-22T05:08:24.503Z,-4.97
2017-01-22T05:09:29.790Z,-4.95
2017-01-22T05:10:35.942Z,-5.04
2017-01-22T05:11:40.139Z,-5.14
2017-01-22T05:12:46.302Z,-5.12
2017-01-22T05:13:51.465Z,-5.08
2017-01-22T05:14:56.632Z,-5.01
2017-01-22T05:16:01.794Z,-5.07
2017-01-22T05:17:07.955Z,-5.07
2017-01-22T05:18:14.117Z,-5.01
2017-01-22T05:19:20.276Z,-5.05
2017-01-22T05:20:25.492Z,-5.04
2017-01-22T05:21:31.676Z,-5.12
2017-01-22T05:22:36.871Z,-4.91
2017-01-22T05:23:42.081Z,-5.07
2017-01-22T05:24:47.318Z,-5.01
2017-01-22T05:25:53.456Z,-5.2
2017-01-22T05:26:59.628Z,-5.07
2017-01-22T05:28:04.813Z,-5.07
2017-01-22T05:29:10.047Z,-5.04
2017-01-22T05:30:16.224Z,-5.11
2017-01-22T05:31:20.447Z,-5.05
2017-01-22T05:32:26.607Z,-5.04
2017-01-22T05:33:31.820Z,-5.03
2017-01-22T05:34:37.002Z,-5.03
2017-01-22T05:35:43.224Z,-5.11
2017-01-22T05:36:48.383Z,-5.12
2017-01-22T05:37:53.593Z,-5.17
2017-01-22T05:38:57.789Z,-5.12
2017-01-22T05:40:03.946Z,-5.16
2017-01-22T05:41:10.105Z,-5.12
2017-01-22T05:42:15.306Z,-5.12
2017-01-22T05:43:19.547Z,-5.11
2017-01-22T05:44:24.721Z,-5.12
2017-01-22T05:45:30.903Z,-5.23
2017-01-22T05:46:37.034Z,-5.22
2017-01-22T05:47:42.260Z,-5.23
2017-01-22T05:48:45.491Z,-5.22
2017-01-22T05:49:51.766Z,-5.22
2017-01-22T05:50:56.894Z,-5.17
2017-01-22T05:52:03.051Z,-5.14
2017-01-22T05:53:08.247Z,-5.19
2017-01-22T05:54:13.435Z,-5.22
2017-01-22T05:55:19.590Z,-5.19
2017-01-22T05:56:25.790Z,-5.2
2017-01-22T05:57:30.984Z,-5.27
2017-01-22T05:58:36.179Z,-5.25
2017-01-22T05:59:42.351Z,-5.23
2017-01-22T06:00:47.524Z,-5.27
2017-01-22T06:01:52.822Z,-5.16
2017-01-22T06:02:58.975Z,-5.17
2017-01-22T06:04:02.233Z,-5.19
2017-01-22T06:05:08.417Z,-5.14
2017-01-22T06:06:14.587Z,-5.17
2017-01-22T06:07:19.770Z,-5.3
2017-01-22T06:08:25.924Z,-5.22
2017-01-22T06:10:36.311Z,-5.27
2017-01-22T06:11:42.477Z,-5.23
2017-01-22T06:12:48.634Z,-5.23
2017-01-22T06:13:54.794Z,-5.26
2017-01-22T06:15:00.957Z,-5.31
2017-01-22T06:16:07.167Z,-5.23
2017-01-22T06:17:12.333Z,-5.35
2017-01-22T06:18:15.561Z,-5.37
2017-01-22T06:19:20.768Z,-5.31
2017-01-22T06:20:25.967Z,-5.37
2017-01-22T06:21:31.171Z,-5.26
2017-01-22T06:22:37.331Z,-5.31
2017-01-22T06:23:42.530Z,-5.33
2017-01-22T06:24:48.688Z,-5.31
2017-01-22T06:25:53.882Z,-5.33
2017-01-22T06:26:59.073Z,-5.31
2017-01-22T06:28:04.270Z,-5.38
2017-01-22T06:29:08.464Z,-5.2
2017-01-22T06:30:14.625Z,-5.23
2017-01-22T06:31:20.782Z,-5.38
2017-01-22T06:32:26.938Z,-5.38
2017-01-22T06:33:32.144Z,-5.27
2017-01-22T06:34:36.413Z,-5.34
2017-01-22T06:35:42.590Z,-5.27
2017-01-22T06:36:47.780Z,-5.4
2017-01-22T06:37:51.976Z,-5.44
2017-01-22T06:38:58.145Z,-5.38
2017-01-22T06:40:03.363Z,-5.38
2017-01-22T06:41:07.588Z,-5.37
2017-01-22T06:42:11.781Z,-5.4
2017-01-22T06:43:16.006Z,-5.38
2017-01-22T06:44:22.167Z,-5.37
2017-01-22T06:45:28.425Z,-5.37
2017-01-22T06:46:31.752Z,-5.4
2017-01-22T06:47:37.921Z,-5.34
2017-01-22T06:48:43.250Z,-5.44
2017-01-22T06:49:49.410Z,-5.44
2017-01-22T06:50:55.568Z,-5.44
2017-01-22T06:51:59.795Z,-5.4
2017-01-22T06:53:04.964Z,-5.45
2017-01-22T06:54:11.132Z,-5.38
2017-01-22T06:55:16.282Z,-5.38
2017-01-22T06:56:20.479Z,-5.45
2017-01-22T06:57:25.649Z,-5.44
2017-01-22T06:58:30.828Z,-5.41
2017-01-22T06:59:36.010Z,-5.38
2017-01-22T07:00:40.229Z,-5.35
2017-01-22T07:01:44.422Z,-5.4
2017-01-22T07:02:49.621Z,-5.35
2017-01-22T07:03:54.815Z,-5.37
2017-01-22T07:04:59.059Z,-5.44
2017-01-22T07:06:04.258Z,-5.35
2017-01-22T07:07:10.415Z,-5.4
2017-01-22T07:08:15.632Z,-5.34
2017-01-22T07:09:21.795Z,-5.45
2017-01-22T07:10:28.015Z,-5.43
2017-01-22T07:11:34.197Z,-5.38
2017-01-22T07:12:38.396Z,-5.38
2017-01-22T07:13:44.569Z,-5.4
2017-01-22T07:14:49.768Z,-5.37
2017-01-22T07:15:53.966Z,-5.38
2017-01-22T07:16:59.161Z,-5.34
2017-01-22T07:18:05.422Z,-5.35
2017-01-22T07:19:10.614Z,-5.35
2017-01-22T07:20:13.893Z,-5.22
2017-01-22T07:21:20.124Z,-5.26
2017-01-22T07:22:26.277Z,-5.31
2017-01-22T07:23:32.437Z,-5.34
2017-01-22T07:24:38.600Z,-5.26
2017-01-22T07:25:43.800Z,-5.3
2017-01-22T07:26:49.960Z,-5.22
2017-01-22T07:27:56.154Z,-5.22
2017-01-22T07:29:01.341Z,-5.19
2017-01-22T07:30:06.499Z,-5.05
2017-01-22T07:31:10.732Z,-5.07
2017-01-22T07:32:16.908Z,-5.05
2017-01-22T07:33:22.097Z,-5.19
2017-01-22T07:34:28.256Z,-5.04
2017-01-22T07:35:33.448Z,-4.94
2017-01-22T07:36:36.715Z,-5.04
2017-01-22T07:37:41.897Z,-5.07
2017-01-22T07:38:48.050Z,-5.01
2017-01-22T07:39:52.276Z,-4.91
2017-01-22T07:40:57.468Z,-5
2017-01-22T07:42:03.619Z,-4.97
2017-01-22T07:43:08.807Z,-4.87
2017-01-22T07:44:14.001Z,-4.89
2017-01-22T07:45:20.170Z,-4.93
2017-01-22T07:46:25.355Z,-4.85
2017-01-22T07:47:29.548Z,-4.85
2017-01-22T07:48:35.777Z,-4.8
2017-01-22T07:49:41.989Z,-4.75
2017-01-22T07:50:46.149Z,-4.79
2017-01-22T07:51:52.316Z,-4.69
2017-01-22T07:52:58.483Z,-4.76
2017-01-22T07:54:04.641Z,-4.69
2017-01-22T07:55:10.802Z,-4.68
2017-01-22T07:56:15.972Z,-4.75
2017-01-22T07:57:22.162Z,-4.59
2017-01-22T07:58:27.295Z,-4.59
2017-01-22T07:59:31.558Z,-4.5
2017-01-22T08:00:35.747Z,-4.5
2017-01-22T08:01:40.046Z,-4.28
2017-01-22T08:02:44.206Z,-3.93
2017-01-22T08:03:50.373Z,-3.44
2017-01-22T08:04:55.571Z,-2.85
2017-01-22T08:06:01.743Z,-2.32
2017-01-22T08:07:07.011Z,-1.7
2017-01-22T08:08:12.188Z,-1.17
2017-01-22T08:09:18.348Z,-0.6
2017-01-22T08:10:23.534Z,-0.12
2017-01-22T08:11:29.695Z,0.49
2017-01-22T08:12:34.893Z,0.96
2017-01-22T08:13:41.054Z,1.37
2017-01-22T08:14:47.238Z,1.79
2017-01-22T08:15:53.398Z,2.19
2017-01-22T08:16:59.562Z,2.55
2017-01-22T08:18:05.734Z,2.95
2017-01-22T08:19:09.964Z,3.28
2017-01-22T08:20:13.239Z,3.7
2017-01-22T08:21:17.430Z,4.01
2017-01-22T08:22:23.601Z,4.15
2017-01-22T08:23:29.814Z,4.39
2017-01-22T08:24:35.952Z,4.73
2017-01-22T08:25:42.131Z,4.92
2017-01-22T08:26:47.366Z,5.28
2017-01-22T08:27:52.625Z,5.38
2017-01-22T08:28:58.798Z,5.7
2017-01-22T08:30:03.045Z,5.95
2017-01-22T08:31:09.223Z,6.13
2017-01-22T08:32:14.391Z,6.4
2017-01-22T08:33:19.658Z,6.51
2017-01-22T08:34:24.820Z,6.68
2017-01-22T08:35:30.023Z,7.04
2017-01-22T08:36:36.190Z,7.24
2017-01-22T08:37:41.398Z,7.42
2017-01-22T08:38:45.603Z,7.63
2017-01-22T08:39:50.813Z,7.93
2017-01-22T08:40:56.986Z,8.1
2017-01-22T08:42:02.188Z,8.18
2017-01-22T08:43:07.364Z,8.35
2017-01-22T08:44:13.540Z,8.63
2017-01-22T08:45:18.721Z,8.78
2017-01-22T08:46:23.988Z,8.86
2017-01-22T08:47:29.137Z,8.94
2017-01-22T08:48:34.341Z,9.15
2017-01-22T08:49:39.550Z,9.12
2017-01-22T08:50:44.731Z,9.1
2017-01-22T08:51:47.975Z,9.2
2017-01-22T08:52:53.149Z,9.27
2017-01-22T08:53:59.308Z,9.4
2017-01-22T08:55:05.535Z,9.61
2017-01-22T08:56:11.681Z,9.85
2017-01-22T08:57:17.851Z,10.01
2017-01-22T08:58:24.047Z,10.24
2017-01-22T08:59:30.215Z,10.39
2017-01-22T09:00:34.456Z,10.56
2017-01-22T09:01:40.638Z,10.62
2017-01-22T09:02:44.925Z,10.63
2017-01-22T09:03:51.095Z,10.56
2017-01-22T09:04:57.266Z,10.56
2017-01-22T09:06:01.532Z,10.73
2017-01-22T09:07:05.836Z,10.99
2017-01-22T09:08:10.061Z,11.16
2017-01-22T09:09:14.309Z,11.31
2017-01-22T09:10:19.489Z,11.52
2017-01-22T09:11:25.662Z,11.52
2017-01-22T09:12:30.883Z,11.41
2017-01-22T09:13:35.085Z,11.35
2017-01-22T09:14:41.262Z,11.43
2017-01-22T09:15:46.464Z,11.44
2017-01-22T09:16:52.650Z,11.59
2017-01-22T09:17:56.888Z,11.39
2017-01-22T09:19:02.167Z,11.54
2017-01-22T09:20:06.391Z,11.5
2017-01-22T09:21:11.607Z,11.44
2017-01-22T09:22:17.793Z,11.47
2017-01-22T09:23:23.966Z,11.39
2017-01-22T09:24:29.291Z,11.49
2017-01-22T09:25:33.528Z,11.11
2017-01-22T09:26:39.736Z,11.24
2017-01-22T09:27:45.907Z,11.1
2017-01-22T09:28:52.080Z,11.27
2017-01-22T09:29:57.310Z,11.44
2017-01-22T09:31:01.570Z,11.54
2017-01-22T09:32:07.906Z,11.78
2017-01-22T09:33:14.069Z,11.94
2017-01-22T09:34:18.312Z,11.93
2017-01-22T09:35:23.535Z,12.01
2017-01-22T09:36:28.800Z,11.94
2017-01-22T09:37:34.946Z,11.99
2017-01-22T09:38:41.122Z,11.9
2017-01-22T09:39:46.331Z,11.75
2017-01-22T09:40:52.533Z,11.5
2017-01-22T09:41:57.759Z,11.57
2017-01-22T09:43:03.925Z,11.74
2017-01-22T09:44:08.143Z,11.97
2017-01-22T09:45:12.354Z,12.2
2017-01-22T09:46:16.643Z,12.29
2017-01-22T09:47:22.815Z,12.41
2017-01-22T09:48:28.085Z,12.39
2017-01-22T09:49:33.265Z,11.94
2017-01-22T09:50:39.451Z,11.56
2017-01-22T09:51:44.663Z,11.59
2017-01-22T09:52:50.839Z,11.64
2017-01-22T09:53:57.009Z,11.74
2017-01-22T09:55:03.185Z,12.01
2017-01-22T09:56:06.454Z,11.9
2017-01-22T09:57:09.776Z,11.57
2017-01-22T09:58:15.958Z,11.29
2017-01-22T09:59:21.185Z,11.24
2017-01-22T10:00:27.384Z,11.52
2017-01-22T10:01:32.597Z,11.64
2017-01-22T10:02:38.764Z,11.72
2017-01-22T10:03:43.970Z,11.68
2017-01-22T10:04:50.186Z,11.44
2017-01-22T10:05:54.423Z,11.49
2017-01-22T10:06:59.597Z,11.47
2017-01-22T10:08:04.826Z,11.61
2017-01-22T10:09:10.999Z,11.7
2017-01-22T10:10:16.199Z,11.93
2017-01-22T10:11:20.420Z,11.65
2017-01-22T10:12:25.604Z,11.46
2017-01-22T10:13:30.811Z,11.46
2017-01-22T10:14:36.984Z,11.46
2017-01-22T10:15:41.237Z,11.41
2017-01-22T10:16:46.401Z,11.52
2017-01-22T10:17:52.589Z,11.56
2017-01-22T10:18:55.837Z,11.43
2017-01-22T10:20:00.082Z,11.38
2017-01-22T10:21:04.336Z,11.47
2017-01-22T10:22:09.621Z,11.46
2017-01-22T10:23:14.787Z,11.7
2017-01-22T10:24:20.969Z,11.86
2017-01-22T10:25:27.148Z,11.8
2017-01-22T10:26:33.334Z,12.19
2017-01-22T10:27:38.543Z,12.19
2017-01-22T10:28:44.720Z,12.29
2017-01-22T10:29:50.902Z,12.24
2017-01-22T10:30:56.135Z,12.01
2017-01-22T10:32:01.350Z,12.45
2017-01-22T10:33:06.552Z,12.77
2017-01-22T10:34:12.730Z,13.14
2017-01-22T10:35:17.996Z,13.49
2017-01-22T10:36:22.231Z,13.49
2017-01-22T10:37:28.412Z,13.38
2017-01-22T10:38:31.657Z,13.21
2017-01-22T10:39:35.873Z,13.04
2017-01-22T10:40:42.049Z,12.96
2017-01-22T10:41:47.253Z,12.88
2017-01-22T10:42:52.461Z,12.88
2017-01-22T10:43:57.673Z,12.96
2017-01-22T10:45:03.842Z,12.71
2017-01-22T10:46:09.057Z,12.6
2017-01-22T10:47:15.245Z,12.66
2017-01-22T10:48:19.490Z,12.37
2017-01-22T10:49:23.890Z,12.21
2017-01-22T10:50:30.095Z,12.29
2017-01-22T10:51:35.303Z,12.02
2017-01-22T10:52:39.559Z,11.97
2017-01-22T10:53:44.751Z,11.82
2017-01-22T10:54:50.938Z,11.77
2017-01-22T10:55:57.120Z,12.01
2017-01-22T10:57:01.414Z,11.89
2017-01-22T10:58:05.704Z,11.71
2017-01-22T10:59:10.871Z,11.64
2017-01-22T11:00:17.221Z,11.52
2017-01-22T11:01:22.405Z,11.52
2017-01-22T11:02:27.592Z,11.24
2017-01-22T11:03:32.835Z,10.88
2017-01-22T11:04:39.011Z,10.8
2017-01-22T11:05:44.228Z,10.47
2017-01-22T11:06:50.364Z,10.3
2017-01-22T11:07:56.543Z,10.04
2017-01-22T11:09:01.746Z,9.91
2017-01-22T11:10:05.968Z,9.75
2017-01-22T11:11:11.163Z,9.64
2017-01-22T11:12:17.391Z,9.56
2017-01-22T11:13:22.594Z,9.31
2017-01-22T11:14:27.813Z,9.13
2017-01-22T11:15:32.066Z,8.83
2017-01-22T11:16:37.277Z,8.72
2017-01-22T11:17:43.447Z,8.47
2017-01-22T11:18:47.744Z,8.12
2017-01-22T11:19:52.003Z,7.79
2017-01-22T11:20:58.162Z,7.56
2017-01-22T11:22:02.379Z,7.27
2017-01-22T11:23:08.559Z,7.07
2017-01-22T11:24:14.727Z,6.83
2017-01-22T11:25:18.969Z,6.66
2017-01-22T11:26:23.167Z,6.56
2017-01-22T11:27:29.346Z,6.41
2017-01-22T11:28:34.548Z,6.4
2017-01-22T11:29:39.734Z,6.26
2017-01-22T11:30:44.905Z,5.96
2017-01-22T11:31:51.070Z,5.91
2017-01-22T11:32:57.289Z,5.91
2017-01-22T11:34:02.443Z,5.81
2017-01-22T11:35:07.647Z,5.71
2017-01-22T11:36:12.847Z,5.59
2017-01-22T11:37:19.019Z,5.45
2017-01-22T11:38:24.268Z,5.55
2017-01-22T11:39:29.399Z,5.59
2017-01-22T11:40:34.603Z,5.49
2017-01-22T11:41:39.802Z,5.46
2017-01-22T11:42:45.106Z,5.28
2017-01-22T11:43:51.273Z,5.23
2017-01-22T11:44:57.551Z,5.16
2017-01-22T11:46:03.796Z,5.14
2017-01-22T11:47:09.901Z,5.16
2017-01-22T11:48:15.103Z,5.01
2017-01-22T11:49:21.271Z,4.89
2017-01-22T11:50:24.541Z,4.86
2017-01-22T11:51:29.781Z,4.86
2017-01-22T11:52:35.977Z,4.86
2017-01-22T11:53:42.137Z,4.77
2017-01-22T11:54:47.334Z,4.76
2017-01-22T11:55:53.498Z,4.67
2017-01-22T11:56:58.699Z,4.57
2017-01-22T11:58:03.910Z,4.69
2017-01-22T11:59:09.116Z,4.59
2017-01-22T12:00:14.312Z,4.57
2017-01-22T12:01:17.564Z,4.51
2017-01-22T12:02:22.753Z,4.42
2017-01-22T12:03:26.990Z,4.4
2017-01-22T12:04:31.220Z,4.46
2017-01-22T12:05:35.554Z,4.46
2017-01-22T12:06:37.725Z,4.42
2017-01-22T12:07:40.019Z,4.42
2017-01-22T12:08:44.225Z,4.34
2017-01-22T12:09:50.403Z,4.33
2017-01-22T12:10:56.572Z,4.33
2017-01-22T12:12:01.751Z,4.28
2017-01-22T12:13:07.912Z,4.28
2017-01-22T12:14:13.080Z,4.25
2017-01-22T12:15:19.260Z,4.15
2017-01-22T12:16:23.491Z,4.16
2017-01-22T12:17:29.664Z,4.16
2017-01-22T12:18:35.830Z,4.15
2017-01-22T12:19:41.993Z,4.22
2017-01-22T12:20:46.220Z,4.21
2017-01-22T12:21:51.392Z,4.1
2017-01-22T12:22:57.556Z,4.04
2017-01-22T12:24:02.734Z,4.19
2017-01-22T12:25:08.933Z,4.18
2017-01-22T12:26:13.175Z,4.24
2017-01-22T12:27:19.344Z,4.21
2017-01-22T12:28:23.684Z,4.01
2017-01-22T12:29:26.954Z,4.16
2017-01-22T12:30:32.146Z,4.06
2017-01-22T12:31:38.309Z,4.06
2017-01-22T12:32:42.543Z,4.06
2017-01-22T12:33:48.815Z,4.03
2017-01-22T12:34:54.980Z,4
2017-01-22T12:36:00.286Z,3.94
2017-01-22T12:37:04.648Z,3.94
2017-01-22T12:38:10.809Z,3.89
2017-01-22T12:39:16.098Z,3.89
2017-01-22T12:40:20.302Z,3.94
2017-01-22T12:41:24.534Z,3.82
2017-01-22T12:42:29.795Z,3.9
2017-01-22T12:43:35.936Z,3.75
2017-01-22T12:44:42.114Z,3.85
2017-01-22T12:45:47.313Z,3.85
2017-01-22T12:46:52.509Z,3.8
2017-01-22T12:47:57.719Z,3.85
2017-01-22T12:49:02.924Z,3.86
2017-01-22T12:50:08.061Z,3.83
2017-01-22T12:51:14.232Z,3.88
2017-01-22T12:52:18.469Z,3.9
2017-01-22T12:53:23.646Z,3.83
2017-01-22T12:54:28.884Z,3.8
2017-01-22T12:55:34.050Z,3.86
2017-01-22T12:56:39.219Z,3.79
2017-01-22T12:57:45.396Z,3.82
2017-01-22T12:58:50.659Z,3.79
2017-01-22T12:59:54.859Z,3.76
2017-01-22T13:01:00.068Z,3.71
2017-01-22T13:02:06.241Z,3.82
2017-01-22T13:03:10.453Z,3.75
2017-01-22T13:04:16.629Z,3.7
2017-01-22T13:05:19.910Z,3.75
2017-01-22T13:06:26.067Z,3.68
2017-01-22T13:07:31.310Z,3.71
2017-01-22T13:08:37.493Z,3.7
2017-01-22T13:09:43.668Z,3.7
2017-01-22T13:10:47.920Z,3.67
2017-01-22T13:11:53.114Z,3.67
2017-01-22T13:12:58.325Z,3.65
2017-01-22T13:14:04.511Z,3.7
2017-01-22T13:15:09.727Z,3.71
2017-01-22T13:16:14.923Z,3.7
2017-01-22T13:17:21.101Z,3.65
2017-01-22T13:18:26.360Z,3.68
2017-01-22T13:19:31.563Z,3.65
2017-01-22T13:20:36.765Z,3.67
2017-01-22T13:21:42.043Z,3.67
2017-01-22T13:22:47.245Z,3.6
2017-01-22T13:23:52.446Z,3.71
2017-01-22T13:24:58.664Z,3.58
2017-01-22T13:26:04.830Z,3.64
2017-01-22T13:27:08.079Z,3.61
2017-01-22T13:28:14.248Z,3.62
2017-01-22T13:29:20.412Z,3.67
2017-01-22T13:30:26.580Z,3.62
2017-01-22T13:31:31.771Z,3.58
2017-01-22T13:32:36.979Z,3.6
2017-01-22T13:33:43.183Z,3.61
2017-01-22T13:34:48.384Z,3.58
2017-01-22T13:35:54.549Z,3.57
2017-01-22T13:37:00.712Z,3.53
2017-01-22T13:38:05.919Z,3.49
2017-01-22T13:39:11.110Z,3.61
2017-01-22T13:40:16.313Z,3.57
2017-01-22T13:41:22.602Z,3.58
2017-01-22T13:42:28.804Z,3.65
2017-01-22T13:43:34.949Z,3.6
2017-01-22T13:44:41.112Z,3.54
2017-01-22T13:45:47.280Z,3.54
2017-01-22T13:46:53.457Z,3.53
2017-01-22T13:47:57.667Z,3.6
2017-01-22T13:49:03.835Z,3.53
2017-01-22T13:50:09.039Z,3.57
2017-01-22T13:51:15.210Z,3.53
2017-01-22T13:52:20.403Z,3.52
2017-01-22T13:53:26.571Z,3.46
2017-01-22T13:54:32.736Z,3.49
2017-01-22T13:55:38.923Z,3.5
2017-01-22T13:56:44.269Z,3.43
2017-01-22T13:57:49.519Z,3.42
2017-01-22T13:58:55.681Z,3.42
2017-01-22T14:00:00.820Z,3.52
2017-01-22T14:01:06.988Z,3.44
2017-01-22T14:02:12.197Z,3.43
2017-01-22T14:03:18.359Z,3.4
2017-01-22T14:04:24.538Z,3.31
2017-01-22T14:05:28.887Z,3.33
2017-01-22T14:06:35.047Z,3.31
2017-01-22T14:07:40.241Z,3.28
2017-01-22T14:08:43.514Z,3.28
2017-01-22T14:09:49.687Z,3.24
2017-01-22T14:10:55.863Z,3.3
2017-01-22T14:12:01.073Z,3.33
2017-01-22T14:13:07.239Z,3.27
2017-01-22T14:14:11.451Z,3.16